createdAt,value
2024-02-20T00:01:37.721Z,12.60
2024-02-20T00:04:05.947Z,14.80
2024-02-20T00:06:33.988Z,18.25
2024-02-20T00:09:02.560Z,12.10
2024-02-20T00:11:30.672Z,15.65
2024-02-20T00:14:00.119Z,12.85
2024-02-20T00:16:28.209Z,14.48
2024-02-20T00:18:56.434Z,13.18
2024-02-20T00:21:25.470Z,21.25
2024-02-20T00:23:53.575Z,14.30
2024-02-20T00:26:21.558Z,19.73
2024-02-20T00:28:49.501Z,16.70
2024-02-20T00:31:18.859Z,16.17
2024-02-20T00:33:46.931Z,13.43
2024-02-20T00:36:14.961Z,15.98
2024-02-20T00:38:42.879Z,15.57
2024-02-20T00:41:10.786Z,18.67
2024-02-20T00:43:38.725Z,16.02
2024-02-20T00:46:06.692Z,15.07
2024-02-20T00:48:36.472Z,14.05
2024-02-20T00:51:04.778Z,19.67
2024-02-20T00:53:32.687Z,14.80
2024-02-20T00:56:00.578Z,10.32
2024-02-20T00:58:28.494Z,18.08
2024-02-20T01:00:56.640Z,11.25
2024-02-20T01:03:25.081Z,16.65
2024-02-20T01:05:54.456Z,14.32
2024-02-20T01:08:22.810Z,15.68
2024-02-20T01:10:50.742Z,14.38
2024-02-20T01:13:18.790Z,10.82
2024-02-20T01:15:46.774Z,10.27
2024-02-20T01:18:14.757Z,12.15
2024-02-20T01:20:42.923Z,10.68
2024-02-20T01:23:13.721Z,14.30
2024-02-20T01:25:43.515Z,12.37
2024-02-20T01:28:12.181Z,13.70
2024-02-20T01:30:42.838Z,15.35
2024-02-20T01:33:10.978Z,11.45
2024-02-20T01:35:40.037Z,9.57
2024-02-20T01:38:08.028Z,15.25
2024-02-20T01:40:38.825Z,10.95
2024-02-20T01:43:08.202Z,11.18
2024-02-20T01:45:36.187Z,10.68
2024-02-20T01:48:06.510Z,12.10
2024-02-20T01:50:36.225Z,10.98
2024-02-20T01:55:34.857Z,12.48
2024-02-20T01:58:04.813Z,13.55
2024-02-20T02:00:32.846Z,12.98
2024-02-20T02:03:00.836Z,10.85
2024-02-20T02:05:28.978Z,10.32
2024-02-20T02:08:00.254Z,14.48
2024-02-20T02:10:28.331Z,9.68
2024-02-20T02:12:56.382Z,12.73
2024-02-20T02:15:25.688Z,16.25
2024-02-20T02:17:53.793Z,10.80
2024-02-20T02:20:21.828Z,7.72
2024-02-20T02:22:49.729Z,10.05
2024-02-20T02:25:18.376Z,11.30
2024-02-20T02:27:47.718Z,13.23
2024-02-20T02:30:16.678Z,9.90
2024-02-20T02:32:44.807Z,12.77
2024-02-20T02:35:13.656Z,7.05
2024-02-20T02:37:41.828Z,7.82
2024-02-20T02:40:11.489Z,11.48
2024-02-20T02:42:39.484Z,13.40
2024-02-20T02:45:09.475Z,9.30
2024-02-20T02:47:37.440Z,11.80
2024-02-20T02:50:06.799Z,10.82
2024-02-20T02:52:35.315Z,11.68
2024-02-20T02:55:03.405Z,12.77
2024-02-20T02:57:31.338Z,10.52
2024-02-20T02:59:59.442Z,13.43
2024-02-20T03:02:29.056Z,10.65
2024-02-20T03:04:58.137Z,6.18
2024-02-20T03:07:26.241Z,11.27
2024-02-20T03:09:54.178Z,9.02
2024-02-20T03:34:40.029Z,7.50
2024-02-20T03:37:09.409Z,11.68
2024-02-20T03:42:06.076Z,5.60
2024-02-20T03:44:33.960Z,9.95
2024-02-20T03:47:01.848Z,4.55
2024-02-20T03:51:57.924Z,6.15
2024-02-20T03:54:27.303Z,8.68
2024-02-20T03:56:55.165Z,3.88
2024-02-20T03:59:23.185Z,6.22
2024-02-20T04:01:51.304Z,4.55
2024-02-20T04:04:20.605Z,3.83
2024-02-20T04:06:48.577Z,6.53
2024-02-20T04:11:45.576Z,4.85
2024-02-20T04:16:41.601Z,5.07
2024-02-20T04:21:37.572Z,5.55
2024-02-20T04:24:05.832Z,2.70
2024-02-20T04:26:33.731Z,3.92
2024-02-20T04:31:31.468Z,3.80
2024-02-20T04:33:59.591Z,1.42
2024-02-20T04:36:27.633Z,4.38
2024-02-20T04:38:58.435Z,3.88
2024-02-20T04:41:26.918Z,2.40
2024-02-20T04:43:54.787Z,1.48
2024-02-20T04:46:24.129Z,4.65
2024-02-20T04:48:52.171Z,2.78
2024-02-20T04:51:20.111Z,2.55
2024-02-20T04:53:48.012Z,2.40
2024-02-20T04:56:15.941Z,3.60
2024-02-20T04:58:44.585Z,6.30
2024-02-20T05:01:12.649Z,3.22
2024-02-20T05:03:42.524Z,1.65
2024-02-20T05:06:10.447Z,5.22
2024-02-20T05:11:07.300Z,3.00
2024-02-20T05:13:35.546Z,2.15
2024-02-20T05:16:04.369Z,4.60
2024-02-20T05:18:32.163Z,3.10
2024-02-20T05:21:01.549Z,1.25
2024-02-20T05:23:29.508Z,3.88
2024-02-20T05:25:57.474Z,5.38
2024-02-20T05:28:25.538Z,2.40
2024-02-20T05:30:53.497Z,4.13
2024-02-20T05:33:21.525Z,2.35
2024-02-20T05:35:49.437Z,6.53
2024-02-20T05:38:19.637Z,3.65
2024-02-20T05:40:49.941Z,2.60
2024-02-20T05:43:17.952Z,2.95
2024-02-20T05:45:46.090Z,2.58
2024-02-20T05:48:16.081Z,2.47
2024-02-20T05:50:44.323Z,2.45
2024-02-20T05:53:12.263Z,2.15
2024-02-20T05:55:43.541Z,1.33
2024-02-20T05:58:11.571Z,2.35
2024-02-20T06:00:39.707Z,1.77
2024-02-20T06:03:08.334Z,5.35
2024-02-20T06:05:36.263Z,5.47
2024-02-20T06:08:04.427Z,4.10
2024-02-20T06:10:32.430Z,1.98
2024-02-20T06:13:01.688Z,3.88
2024-02-20T06:15:29.663Z,1.40
2024-02-20T06:17:57.614Z,1.70
2024-02-20T06:20:25.599Z,0.77
2024-02-20T06:22:53.520Z,3.10
2024-02-20T06:25:21.496Z,2.05
2024-02-20T06:27:49.700Z,1.95
2024-02-20T06:30:19.314Z,2.78
2024-02-20T06:32:47.305Z,0.60
2024-02-20T06:35:15.349Z,0.70
2024-02-20T06:37:43.331Z,1.75
2024-02-20T06:40:11.809Z,2.20
2024-02-20T06:42:39.732Z,3.28
2024-02-20T06:45:10.392Z,1.25
2024-02-20T06:47:41.665Z,2.47
2024-02-20T06:50:12.909Z,1.45
2024-02-20T06:52:42.037Z,1.73
2024-02-20T06:55:10.667Z,0.88
2024-02-20T06:57:41.019Z,3.95
2024-02-20T07:00:12.942Z,3.05
2024-02-20T07:02:43.154Z,2.55
2024-02-20T07:05:12.049Z,2.58
2024-02-20T07:07:40.623Z,3.20
2024-02-20T07:10:10.221Z,2.97
2024-02-20T07:12:38.473Z,2.35
2024-02-20T07:15:07.890Z,3.50
2024-02-20T07:17:36.201Z,2.47
2024-02-20T07:20:06.225Z,3.67
2024-02-20T07:22:34.678Z,2.35
2024-02-20T07:25:04.237Z,1.92
2024-02-20T07:27:32.179Z,3.22
2024-02-20T07:30:00.205Z,2.90
2024-02-20T07:32:28.337Z,5.43
2024-02-20T07:34:56.869Z,7.28
2024-02-20T07:37:26.246Z,3.63
2024-02-20T07:39:54.185Z,4.03
2024-02-20T07:42:22.115Z,5.30
2024-02-20T07:44:50.054Z,5.00
2024-02-20T07:47:17.944Z,5.15
2024-02-20T07:49:47.946Z,6.53
2024-02-20T07:52:16.020Z,4.13
2024-02-20T07:54:45.284Z,5.03
2024-02-20T07:57:13.239Z,4.65
2024-02-20T07:59:42.186Z,4.75
2024-02-20T08:02:10.611Z,4.88
2024-02-20T08:04:39.579Z,3.95
2024-02-20T08:07:07.717Z,3.45
2024-02-20T08:09:36.289Z,4.53
2024-02-20T08:12:06.250Z,4.88
2024-02-20T08:14:35.474Z,7.38
2024-02-20T08:17:03.580Z,3.85
2024-02-20T08:19:31.610Z,3.83
2024-02-20T08:21:59.726Z,8.63
2024-02-20T08:24:27.669Z,2.70
2024-02-20T08:26:56.224Z,4.13
2024-02-20T08:29:29.127Z,7.25
2024-02-20T08:31:57.420Z,3.83
2024-02-20T08:34:25.755Z,9.60
2024-02-20T08:36:53.731Z,7.55
2024-02-20T08:39:22.133Z,4.82
2024-02-20T08:41:50.096Z,4.30
2024-02-20T08:44:18.025Z,5.55
2024-02-20T08:46:47.369Z,5.85
2024-02-20T08:49:15.391Z,5.15
2024-02-20T08:51:44.176Z,4.55
2024-02-20T08:54:13.932Z,5.95
2024-02-20T08:56:42.239Z,6.45
2024-02-20T08:59:11.210Z,9.55
2024-02-20T09:01:39.673Z,10.27
2024-02-20T09:04:13.034Z,9.70
2024-02-20T09:09:08.977Z,11.50
2024-02-20T09:11:37.143Z,17.42
2024-02-20T09:14:05.047Z,9.70
2024-02-20T09:16:33.473Z,12.10
2024-02-20T09:19:03.285Z,15.90
2024-02-20T09:21:32.836Z,13.90
2024-02-20T09:24:01.077Z,17.45
2024-02-20T09:26:29.678Z,16.58
2024-02-20T09:28:57.631Z,12.15
2024-02-20T09:31:25.573Z,19.02
2024-02-20T09:33:53.573Z,12.30
2024-02-20T09:36:21.525Z,12.70
2024-02-20T09:38:50.784Z,19.30
2024-02-20T09:41:24.497Z,11.45
2024-02-20T09:43:52.694Z,16.50
2024-02-20T09:46:22.600Z,18.77
2024-02-20T09:48:50.752Z,14.38
2024-02-20T09:51:21.550Z,15.32
2024-02-20T09:53:56.396Z,16.30
2024-02-20T09:56:25.882Z,13.35
2024-02-20T09:58:54.155Z,12.45
2024-02-20T10:01:24.380Z,12.48
2024-02-20T10:03:56.081Z,11.68
2024-02-20T10:06:24.211Z,20.90
2024-02-20T10:08:55.408Z,13.52
2024-02-20T10:11:23.609Z,10.60
2024-02-20T10:13:53.548Z,10.43
2024-02-20T10:16:21.742Z,21.80
2024-02-20T10:18:58.440Z,18.10
2024-02-20T10:21:26.804Z,15.90
2024-02-20T10:24:11.842Z,16.10
2024-02-20T10:26:47.478Z,13.05
2024-02-20T10:29:16.045Z,12.45
2024-02-20T10:31:44.111Z,14.10
2024-02-20T10:34:14.985Z,17.10
2024-02-20T10:36:43.419Z,11.77
2024-02-20T10:39:12.861Z,14.75
2024-02-20T10:41:41.400Z,13.40
2024-02-20T10:44:10.162Z,15.48
2024-02-20T10:46:39.702Z,10.10
2024-02-20T10:49:21.579Z,12.77
2024-02-20T10:51:51.873Z,12.68
2024-02-20T10:54:24.217Z,14.90
2024-02-20T10:56:55.707Z,16.65
2024-02-20T10:59:23.863Z,16.40
2024-02-20T11:01:51.796Z,18.48
2024-02-20T11:04:20.538Z,13.38
2024-02-20T11:06:50.819Z,15.07
2024-02-20T11:09:18.893Z,10.35
2024-02-20T11:11:48.385Z,16.45
2024-02-20T11:14:26.432Z,23.88
2024-02-20T11:16:54.401Z,18.63
2024-02-20T11:19:26.562Z,13.10
2024-02-20T11:21:54.771Z,9.07
2024-02-20T11:24:22.758Z,18.70
2024-02-20T11:27:02.254Z,13.13
2024-02-20T11:29:30.291Z,15.38
2024-02-20T11:32:11.166Z,18.33
2024-02-20T11:34:39.291Z,28.85
2024-02-20T11:37:10.285Z,16.35
2024-02-20T11:39:38.218Z,11.45
2024-02-20T11:42:08.751Z,12.60
2024-02-20T11:44:40.005Z,13.55
2024-02-20T11:47:08.227Z,10.43
2024-02-20T11:54:35.409Z,12.88
2024-02-20T11:57:03.508Z,13.43
2024-02-20T11:59:33.059Z,21.85
2024-02-20T12:02:01.314Z,22.92
2024-02-20T12:04:30.408Z,20.40
2024-02-20T12:07:08.781Z,16.52
2024-02-20T12:09:38.136Z,14.57
2024-02-20T12:12:06.920Z,20.67
2024-02-20T12:14:36.200Z,14.18
2024-02-20T12:17:07.058Z,23.50
2024-02-20T12:19:38.552Z,17.55
2024-02-20T12:22:06.656Z,21.23
2024-02-20T12:24:34.400Z,15.27
2024-02-20T12:27:02.382Z,21.00
2024-02-20T12:29:30.065Z,18.30
2024-02-20T12:31:59.353Z,23.58
2024-02-20T12:34:31.908Z,22.88
2024-02-20T12:37:09.374Z,18.70
2024-02-20T12:39:37.503Z,23.45
2024-02-20T12:42:06.719Z,20.42
2024-02-20T12:44:36.663Z,36.28
2024-02-20T12:47:06.327Z,18.13
2024-02-20T12:49:34.321Z,14.15
2024-02-20T12:52:02.279Z,14.13
2024-02-20T12:54:30.191Z,21.95
2024-02-20T12:56:59.861Z,24.02
2024-02-20T12:59:27.987Z,15.80
2024-02-20T13:01:56.307Z,20.23
2024-02-20T13:04:25.710Z,15.50
2024-02-20T13:06:53.779Z,23.00
2024-02-20T13:09:21.781Z,29.27
2024-02-20T13:11:50.092Z,24.88
2024-02-20T13:14:18.087Z,28.45
2024-02-20T13:16:47.599Z,30.75
2024-02-20T13:19:17.041Z,18.55
2024-02-20T13:21:46.478Z,21.13
2024-02-20T13:24:14.637Z,15.77
2024-02-20T13:26:42.519Z,32.53
2024-02-20T13:29:12.359Z,20.80
2024-02-20T13:31:40.998Z,16.88
2024-02-20T13:34:11.438Z,19.83
2024-02-20T13:36:40.660Z,21.85
2024-02-20T13:39:10.433Z,17.38
2024-02-20T13:41:39.441Z,13.35
2024-02-20T13:44:10.162Z,32.08
2024-02-20T13:46:38.165Z,16.35
2024-02-20T13:49:06.323Z,21.67
2024-02-20T13:51:35.034Z,19.30
2024-02-20T13:54:03.062Z,19.92
2024-02-20T13:56:33.027Z,20.58
2024-02-20T13:59:01.203Z,24.00
2024-02-20T14:01:29.018Z,14.02
2024-02-20T14:03:57.229Z,15.10
2024-02-20T14:06:25.939Z,16.70
2024-02-20T14:08:57.364Z,22.50
2024-02-20T14:13:55.566Z,16.00
2024-02-20T14:16:23.593Z,20.25
2024-02-20T14:18:51.577Z,16.83
2024-02-20T14:21:19.571Z,21.20
2024-02-20T14:23:47.493Z,17.63
2024-02-20T14:26:15.359Z,23.02
2024-02-20T14:28:43.300Z,21.60
2024-02-20T14:31:12.717Z,18.70
2024-02-20T14:33:40.660Z,13.27
2024-02-20T14:36:08.994Z,15.82
2024-02-20T14:41:05.337Z,20.73
2024-02-20T14:43:33.367Z,19.55
2024-02-20T14:46:03.285Z,19.88
2024-02-20T14:48:33.814Z,20.33
2024-02-20T14:51:02.044Z,14.27
2024-02-20T14:53:31.653Z,22.40
2024-02-20T14:55:59.624Z,18.45
2024-02-20T15:00:55.648Z,13.15
2024-02-20T15:03:23.596Z,12.80
2024-02-20T15:05:54.862Z,17.88
2024-02-20T15:08:22.837Z,18.63
2024-02-20T15:10:51.256Z,23.98
2024-02-20T15:13:19.355Z,24.30
2024-02-20T15:15:50.561Z,13.13
2024-02-20T15:18:18.707Z,16.58
2024-02-20T15:20:46.688Z,11.90
2024-02-20T15:23:17.117Z,15.50
2024-02-20T15:25:47.733Z,12.70
2024-02-20T15:28:15.677Z,11.65
2024-02-20T15:30:43.596Z,20.35
2024-02-20T15:33:11.646Z,14.60
2024-02-20T15:35:40.029Z,13.27
2024-02-20T15:38:07.999Z,14.68
2024-02-20T15:40:42.370Z,16.85
2024-02-20T15:43:14.849Z,18.08
2024-02-20T15:45:44.660Z,21.57
2024-02-20T15:48:12.859Z,32.17
2024-02-20T15:50:44.221Z,21.98
2024-02-20T15:53:14.371Z,16.55
2024-02-20T15:55:45.384Z,22.02
2024-02-20T15:58:15.577Z,22.00
2024-02-20T16:00:44.756Z,15.95
2024-02-20T16:03:13.953Z,15.48
2024-02-20T16:05:42.095Z,16.05
2024-02-20T16:08:15.908Z,19.42
2024-02-20T16:10:47.175Z,17.73
2024-02-20T16:13:16.039Z,18.35
2024-02-20T16:15:44.113Z,20.92
2024-02-20T16:18:11.869Z,23.08
2024-02-20T16:20:39.778Z,19.45
2024-02-20T16:23:09.733Z,19.70
2024-02-20T16:25:39.274Z,17.88
2024-02-20T16:28:08.715Z,18.92
2024-02-20T16:33:04.754Z,17.33
2024-02-20T16:35:34.243Z,15.77
2024-02-20T16:38:02.324Z,22.17
2024-02-20T16:40:30.540Z,28.77
2024-02-20T16:42:58.453Z,21.17
2024-02-20T16:45:32.393Z,23.38
2024-02-20T16:48:00.676Z,19.05
2024-02-20T16:50:34.004Z,14.98
2024-02-20T16:53:03.996Z,20.58
2024-02-20T16:55:32.470Z,19.02
2024-02-20T16:58:00.470Z,21.65
2024-02-20T17:00:31.184Z,16.38
2024-02-20T17:07:57.132Z,14.48
2024-02-20T17:10:25.282Z,12.32
2024-02-20T17:15:21.574Z,28.25
2024-02-20T17:17:50.971Z,25.52
2024-02-20T17:20:19.094Z,21.85
2024-02-20T17:27:44.418Z,19.67
2024-02-20T17:30:13.295Z,20.20
2024-02-20T17:32:41.267Z,21.05
2024-02-20T17:35:11.010Z,16.70
2024-02-20T17:37:39.063Z,20.85
2024-02-20T17:40:08.937Z,24.05
2024-02-20T17:42:36.961Z,20.55
2024-02-20T17:45:05.853Z,21.85
2024-02-20T17:47:33.905Z,17.92
2024-02-20T17:50:02.336Z,20.92
2024-02-20T17:52:32.453Z,13.77
2024-02-20T17:55:00.447Z,16.20
2024-02-20T17:57:28.324Z,28.88
2024-02-20T17:59:56.278Z,17.50
2024-02-20T18:02:24.664Z,26.88
2024-02-20T18:07:22.088Z,18.38
2024-02-20T18:09:51.337Z,21.88
2024-02-20T18:12:19.458Z,26.02
2024-02-20T18:17:17.049Z,19.30
2024-02-20T18:19:46.710Z,18.02
2024-02-20T18:22:14.702Z,33.30
2024-02-20T18:24:42.596Z,27.27
2024-02-20T18:27:11.895Z,17.40
2024-02-20T18:32:11.979Z,24.98
2024-02-20T18:34:41.374Z,19.05
2024-02-20T18:37:13.014Z,18.23
2024-02-20T18:39:46.941Z,22.48
2024-02-20T18:47:13.244Z,14.45
2024-02-20T18:52:13.528Z,17.65
2024-02-20T18:54:43.831Z,17.27
2024-02-20T18:57:13.556Z,17.10
2024-02-20T18:59:42.987Z,19.48
2024-02-20T19:04:47.132Z,17.17
2024-02-20T19:07:15.084Z,16.95
2024-02-20T19:09:43.055Z,17.27
2024-02-20T19:12:11.455Z,26.65
2024-02-20T19:14:39.693Z,18.02
2024-02-20T19:19:37.170Z,18.83
2024-02-20T19:22:05.449Z,19.73
2024-02-20T19:24:33.370Z,16.27
2024-02-20T19:27:01.323Z,19.98
2024-02-20T19:29:29.965Z,20.58
2024-02-20T19:32:00.831Z,23.42
2024-02-20T19:34:30.446Z,14.05
2024-02-20T19:36:58.509Z,20.08
2024-02-20T19:39:26.546Z,21.55
2024-02-20T19:41:54.484Z,14.20
2024-02-20T19:44:25.536Z,19.77
2024-02-20T19:46:57.357Z,24.25
2024-02-20T19:49:27.473Z,16.42
2024-02-20T19:51:56.849Z,17.67
2024-02-20T19:54:24.723Z,23.02
2024-02-20T19:56:53.422Z,19.75
2024-02-20T19:59:21.292Z,17.10
2024-02-20T20:01:49.236Z,28.15
2024-02-20T20:04:17.319Z,16.13
2024-02-20T20:06:46.282Z,15.88
2024-02-20T20:09:16.302Z,18.38
2024-02-20T20:11:45.598Z,20.63
2024-02-20T20:14:14.061Z,20.45
2024-02-20T20:16:42.592Z,27.05
2024-02-20T20:19:11.300Z,18.85
2024-02-20T20:21:39.797Z,18.05
2024-02-20T20:24:14.994Z,20.05
2024-02-20T20:26:48.340Z,12.82
2024-02-20T20:29:16.608Z,15.02
2024-02-20T20:31:45.347Z,26.40
2024-02-20T20:34:14.162Z,15.43
2024-02-20T20:36:44.769Z,21.38
2024-02-20T20:39:13.529Z,21.15
2024-02-20T20:41:43.270Z,16.60
2024-02-20T20:44:12.844Z,21.85
2024-02-20T20:46:40.987Z,18.38
2024-02-20T20:49:09.852Z,23.13
2024-02-20T20:51:38.427Z,28.05
2024-02-20T20:54:07.111Z,16.80
2024-02-20T20:56:35.742Z,17.27
2024-02-20T20:59:04.277Z,19.38
2024-02-20T21:01:35.159Z,17.63
2024-02-20T21:04:04.789Z,25.00
2024-02-20T21:06:33.422Z,25.02
2024-02-20T21:09:01.808Z,23.55
2024-02-20T21:11:30.217Z,22.20
2024-02-20T21:13:58.662Z,24.35
2024-02-20T21:16:27.028Z,16.05
2024-02-20T21:18:58.563Z,15.23
2024-02-20T21:21:27.031Z,20.55
2024-02-20T21:23:55.634Z,25.15
2024-02-20T21:26:24.605Z,22.83
2024-02-20T21:28:53.084Z,22.88
2024-02-20T21:31:21.554Z,25.63
2024-02-20T21:33:49.709Z,21.05
2024-02-20T21:36:19.137Z,25.15
2024-02-20T21:38:47.556Z,19.52
2024-02-20T21:41:15.656Z,26.77
2024-02-20T21:43:43.931Z,22.20
2024-02-20T21:46:18.885Z,25.63
2024-02-20T21:48:47.762Z,30.75
2024-02-20T21:51:16.176Z,22.35
2024-02-20T21:53:45.590Z,22.15
2024-02-20T21:56:16.500Z,21.50
2024-02-20T21:58:46.202Z,26.42
2024-02-20T22:01:14.413Z,22.38
2024-02-20T22:03:42.950Z,21.38
2024-02-20T22:06:11.049Z,21.42
2024-02-20T22:08:40.014Z,23.35
2024-02-20T22:11:09.432Z,33.28
2024-02-20T22:13:37.857Z,22.63
2024-02-20T22:16:06.541Z,20.50
2024-02-20T22:18:34.609Z,21.92
2024-02-20T22:21:02.613Z,26.02
2024-02-20T22:23:30.557Z,21.98
2024-02-20T22:25:58.998Z,26.45
2024-02-20T22:28:28.512Z,15.82
2024-02-20T22:30:56.404Z,26.52
2024-02-20T22:33:24.701Z,23.83
2024-02-20T22:35:52.656Z,30.20
2024-02-20T22:38:20.782Z,17.73
2024-02-20T22:40:48.739Z,16.75
2024-02-20T22:43:16.780Z,25.10
2024-02-20T22:45:46.023Z,22.50
2024-02-20T22:48:14.365Z,26.38
2024-02-20T22:50:42.309Z,22.15
2024-02-20T22:53:10.234Z,29.83
2024-02-20T22:55:38.250Z,33.67
2024-02-20T22:58:06.149Z,21.05
2024-02-20T23:00:35.120Z,25.80
2024-02-20T23:03:05.050Z,20.48
2024-02-20T23:05:33.201Z,21.27
2024-02-20T23:08:01.190Z,25.30
2024-02-20T23:10:29.411Z,20.10
2024-02-20T23:12:57.339Z,20.15
2024-02-20T23:15:25.205Z,23.65
2024-02-20T23:17:53.466Z,31.75
2024-02-20T23:20:22.784Z,16.88
2024-02-20T23:22:50.757Z,21.23
2024-02-20T23:25:18.682Z,19.10
2024-02-20T23:27:46.626Z,20.85
2024-02-20T23:30:14.762Z,22.02
2024-02-20T23:32:42.743Z,20.77
2024-02-20T23:35:11.183Z,26.50
2024-02-20T23:37:42.847Z,19.83
2024-02-20T23:40:11.781Z,22.80
2024-02-20T23:42:39.704Z,19.33
2024-02-20T23:45:08.673Z,19.40
2024-02-20T23:47:36.576Z,22.35
2024-02-20T23:50:04.786Z,20.60
2024-02-20T23:52:32.784Z,34.63
2024-02-20T23:55:02.099Z,20.50
2024-02-20T23:57:30.029Z,20.00
2024-02-20T23:59:57.969Z,18.83
